This is the latest recevied weather packets stored in our database for station/object HB9HUT-13. If no packets are shown the sender has not sent any weather packets the latest 1 day(s).
| Time | Temp. | Humidity | Pressure | Rain* | Wind** | Luminosity | Snow |
|---|---|---|---|---|---|---|---|
| 1778102817 | 7.78° C | 47% | 840.5 hPa | - | - | - | - |
| 1778097399 | 8.33° C | 47% | 840.2 hPa | - | - | - | - |
| 1778095593 | 8.33° C | 47% | 839.8 hPa | - | - | - | - |
| 1778090175 | 10.56° C | 48% | 839 hPa | - | - | - | - |
| 1778090175 | 10.56° C | 48% | 839 hPa | - | - | - | - |
| 1778087466 | 11.11° C | 49% | 838.8 hPa | - | - | - | - |
| 1778084757 | 11.11° C | 47% | 838.6 hPa | - | - | - | - |
| 1778083854 | 10.56° C | 47% | 838.4 hPa | - | - | - | - |
| 1778080242 | 11.11° C | 47% | 838.5 hPa | - | - | - | - |
| 1778079339 | 11.11° C | 46% | 838.7 hPa | - | - | - | - |
| 1778078437 | 11.11° C | 46% | 838.6 hPa | - | - | - | - |
| 1778078437 | 11.11° C | 46% | 838.6 hPa | - | - | - | - |
| 1778077533 | 11.67° C | 46% | 838.4 hPa | - | - | - | - |
| 1778076630 | 12.22° C | 46% | 838.3 hPa | - | - | - | - |
| 1778075727 | 12.78° C | 47% | 837.9 hPa | - | - | - | - |
| 1778073018 | 14.44° C | 46% | 837.8 hPa | - | - | - | - |
| 1778068503 | 15.56° C | 45% | 836.8 hPa | - | - | - | - |
| 1778066697 | 16.11° C | 44% | 836.7 hPa | - | - | - | - |
| 1778065794 | 16.67° C | 45% | 836.8 hPa | - | - | - | - |
| 1778064891 | 16.67° C | 45% | 836.8 hPa | - | - | - | - |
| 1778063988 | 16.67° C | 44% | 836.7 hPa | - | - | - | - |
| 1778063988 | 16.67° C | 44% | 836.7 hPa | - | - | - | - |
| 1778063085 | 16.67° C | 45% | 836.6 hPa | - | - | - | - |
| 1778062182 | 16.67° C | 45% | 836.7 hPa | - | - | - | - |
| 1778062182 | 16.67° C | 45% | 836.7 hPa | - | - | - | - |
* Rain since midnight (hover to see other rain measurements)
** Current wind speed in m/s (hover to see current wind gust speed)